sensor_id;sensor_type;location;lat;lon;timestamp;temperature;humidity
42841;DHT22;28491;46.898;7.660;2023-02-03T00:00:50;1.80;60.00
42841;DHT22;28491;46.898;7.660;2023-02-03T00:03:16;1.70;60.70
42841;DHT22;28491;46.898;7.660;2023-02-03T00:05:42;1.70;61.20
42841;DHT22;28491;46.898;7.660;2023-02-03T00:08:08;1.60;61.10
42841;DHT22;28491;46.898;7.660;2023-02-03T00:10:35;1.60;61.70
42841;DHT22;28491;46.898;7.660;2023-02-03T00:13:02;1.70;61.90
42841;DHT22;28491;46.898;7.660;2023-02-03T00:15:27;1.70;61.70
42841;DHT22;28491;46.898;7.660;2023-02-03T00:17:53;1.80;61.30
42841;DHT22;28491;46.898;7.660;2023-02-03T00:20:19;1.80;60.60
42841;DHT22;28491;46.898;7.660;2023-02-03T00:22:44;1.80;60.50
42841;DHT22;28491;46.898;7.660;2023-02-03T00:25:10;1.80;60.60
42841;DHT22;28491;46.898;7.660;2023-02-03T00:27:35;1.80;60.40
42841;DHT22;28491;46.898;7.660;2023-02-03T00:30:01;1.80;60.10
42841;DHT22;28491;46.898;7.660;2023-02-03T00:32:27;1.90;60.00
42841;DHT22;28491;46.898;7.660;2023-02-03T00:34:53;1.80;60.00
42841;DHT22;28491;46.898;7.660;2023-02-03T00:37:18;1.80;60.60
42841;DHT22;28491;46.898;7.660;2023-02-03T00:39:44;1.80;61.10
42841;DHT22;28491;46.898;7.660;2023-02-03T00:42:09;1.70;61.70
42841;DHT22;28491;46.898;7.660;2023-02-03T00:44:35;1.70;62.70
42841;DHT22;28491;46.898;7.660;2023-02-03T00:47:00;1.70;63.80
42841;DHT22;28491;46.898;7.660;2023-02-03T00:49:26;1.70;64.00
42841;DHT22;28491;46.898;7.660;2023-02-03T00:51:52;1.80;63.40
42841;DHT22;28491;46.898;7.660;2023-02-03T00:54:17;1.70;63.70
42841;DHT22;28491;46.898;7.660;2023-02-03T00:56:44;1.70;63.90
42841;DHT22;28491;46.898;7.660;2023-02-03T00:59:09;1.70;64.00
42841;DHT22;28491;46.898;7.660;2023-02-03T01:01:35;1.80;64.10
42841;DHT22;28491;46.898;7.660;2023-02-03T01:04:01;1.80;63.50
42841;DHT22;28491;46.898;7.660;2023-02-03T01:06:27;1.90;63.10
42841;DHT22;28491;46.898;7.660;2023-02-03T01:08:53;1.90;63.80
42841;DHT22;28491;46.898;7.660;2023-02-03T01:11:24;1.90;63.20
42841;DHT22;28491;46.898;7.660;2023-02-03T01:13:53;1.90;62.50
42841;DHT22;28491;46.898;7.660;2023-02-03T01:16:20;1.90;62.60
42841;DHT22;28491;46.898;7.660;2023-02-03T01:18:47;1.80;62.80
42841;DHT22;28491;46.898;7.660;2023-02-03T01:21:20;1.70;64.00
42841;DHT22;28491;46.898;7.660;2023-02-03T01:23:46;1.70;65.00
42841;DHT22;28491;46.898;7.660;2023-02-03T01:26:18;1.80;65.40
42841;DHT22;28491;46.898;7.660;2023-02-03T01:28:50;1.90;64.50
42841;DHT22;28491;46.898;7.660;2023-02-03T01:31:18;2.00;63.00
42841;DHT22;28491;46.898;7.660;2023-02-03T01:33:44;2.00;62.60
42841;DHT22;28491;46.898;7.660;2023-02-03T01:36:15;2.00;63.00
42841;DHT22;28491;46.898;7.660;2023-02-03T01:38:41;2.00;62.70
42841;DHT22;28491;46.898;7.660;2023-02-03T01:41:09;2.00;62.40
42841;DHT22;28491;46.898;7.660;2023-02-03T01:43:39;2.00;62.40
42841;DHT22;28491;46.898;7.660;2023-02-03T01:46:27;2.00;63.00
42841;DHT22;28491;46.898;7.660;2023-02-03T01:48:55;1.90;64.00
42841;DHT22;28491;46.898;7.660;2023-02-03T01:51:24;1.90;64.70
42841;DHT22;28491;46.898;7.660;2023-02-03T01:53:51;1.80;65.20
42841;DHT22;28491;46.898;7.660;2023-02-03T01:56:17;1.80;66.50
42841;DHT22;28491;46.898;7.660;2023-02-03T01:58:43;1.80;67.50
42841;DHT22;28491;46.898;7.660;2023-02-03T02:01:10;1.80;67.70
42841;DHT22;28491;46.898;7.660;2023-02-03T02:03:51;1.80;68.50
42841;DHT22;28491;46.898;7.660;2023-02-03T02:06:18;1.90;68.40
42841;DHT22;28491;46.898;7.660;2023-02-03T02:08:46;2.00;67.30
42841;DHT22;28491;46.898;7.660;2023-02-03T02:11:12;2.00;66.40
42841;DHT22;28491;46.898;7.660;2023-02-03T02:13:38;2.10;64.60
42841;DHT22;28491;46.898;7.660;2023-02-03T02:19:50;2.10;63.50
42841;DHT22;28491;46.898;7.660;2023-02-03T02:28:37;1.90;66.50
42841;DHT22;28491;46.898;7.660;2023-02-03T02:33:58;1.80;68.40
42841;DHT22;28491;46.898;7.660;2023-02-03T02:36:43;1.80;68.20
42841;DHT22;28491;46.898;7.660;2023-02-03T02:39:45;1.90;67.50
42841;DHT22;28491;46.898;7.660;2023-02-03T02:42:22;1.90;66.90
42841;DHT22;28491;46.898;7.660;2023-02-03T02:44:52;1.90;67.20
42841;DHT22;28491;46.898;7.660;2023-02-03T02:47:21;1.80;67.80
42841;DHT22;28491;46.898;7.660;2023-02-03T02:49:53;1.80;68.90
42841;DHT22;28491;46.898;7.660;2023-02-03T02:52:23;1.70;69.80
42841;DHT22;28491;46.898;7.660;2023-02-03T02:54:52;1.80;69.70
42841;DHT22;28491;46.898;7.660;2023-02-03T02:57:20;1.80;69.40
42841;DHT22;28491;46.898;7.660;2023-02-03T02:59:48;1.80;70.10
42841;DHT22;28491;46.898;7.660;2023-02-03T03:02:13;1.80;70.60
42841;DHT22;28491;46.898;7.660;2023-02-03T03:04:39;1.90;70.30
42841;DHT22;28491;46.898;7.660;2023-02-03T03:07:23;2.00;68.80
42841;DHT22;28491;46.898;7.660;2023-02-03T03:09:54;2.10;66.70
42841;DHT22;28491;46.898;7.660;2023-02-03T03:12:29;2.10;66.30
42841;DHT22;28491;46.898;7.660;2023-02-03T03:14:59;2.10;65.70
42841;DHT22;28491;46.898;7.660;2023-02-03T03:17:29;2.10;65.70
42841;DHT22;28491;46.898;7.660;2023-02-03T03:19:56;2.10;64.70
42841;DHT22;28491;46.898;7.660;2023-02-03T03:22:28;2.10;64.90
42841;DHT22;28491;46.898;7.660;2023-02-03T03:25:27;2.10;65.10
42841;DHT22;28491;46.898;7.660;2023-02-03T03:27:58;2.10;65.40
42841;DHT22;28491;46.898;7.660;2023-02-03T03:30:31;2.10;65.80
42841;DHT22;28491;46.898;7.660;2023-02-03T03:32:57;2.20;66.20
42841;DHT22;28491;46.898;7.660;2023-02-03T03:35:24;2.20;65.70
42841;DHT22;28491;46.898;7.660;2023-02-03T03:37:58;2.10;65.70
42841;DHT22;28491;46.898;7.660;2023-02-03T03:41:12;2.20;65.90
42841;DHT22;28491;46.898;7.660;2023-02-03T03:43:31;2.10;65.10
42841;DHT22;28491;46.898;7.660;2023-02-03T03:46:02;2.20;65.20
42841;DHT22;28491;46.898;7.660;2023-02-03T03:48:36;2.20;65.40
42841;DHT22;28491;46.898;7.660;2023-02-03T03:51:08;2.20;65.50
42841;DHT22;28491;46.898;7.660;2023-02-03T03:53:39;2.20;66.60
42841;DHT22;28491;46.898;7.660;2023-02-03T03:56:07;2.20;67.10
42841;DHT22;28491;46.898;7.660;2023-02-03T03:58:36;2.20;67.00
42841;DHT22;28491;46.898;7.660;2023-02-03T04:01:05;2.20;66.30
42841;DHT22;28491;46.898;7.660;2023-02-03T04:06:03;2.20;67.80
42841;DHT22;28491;46.898;7.660;2023-02-03T04:08:28;2.10;68.10
42841;DHT22;28491;46.898;7.660;2023-02-03T04:10:54;2.00;68.40
42841;DHT22;28491;46.898;7.660;2023-02-03T04:13:20;2.00;69.90
42841;DHT22;28491;46.898;7.660;2023-02-03T04:15:45;2.00;70.10
42841;DHT22;28491;46.898;7.660;2023-02-03T04:18:12;2.10;69.40
42841;DHT22;28491;46.898;7.660;2023-02-03T04:20:38;2.10;69.20
42841;DHT22;28491;46.898;7.660;2023-02-03T04:23:04;2.20;68.60
42841;DHT22;28491;46.898;7.660;2023-02-03T04:25:29;2.20;68.20
42841;DHT22;28491;46.898;7.660;2023-02-03T04:27:55;2.20;67.90
42841;DHT22;28491;46.898;7.660;2023-02-03T04:30:20;2.20;67.70
42841;DHT22;28491;46.898;7.660;2023-02-03T04:32:46;2.20;68.50
42841;DHT22;28491;46.898;7.660;2023-02-03T04:35:12;2.20;68.70
42841;DHT22;28491;46.898;7.660;2023-02-03T04:37:38;2.10;69.20
42841;DHT22;28491;46.898;7.660;2023-02-03T04:40:05;2.00;69.30
42841;DHT22;28491;46.898;7.660;2023-02-03T04:42:30;2.00;70.20
42841;DHT22;28491;46.898;7.660;2023-02-03T04:44:56;2.00;70.70
42841;DHT22;28491;46.898;7.660;2023-02-03T04:47:21;2.10;70.70
42841;DHT22;28491;46.898;7.660;2023-02-03T04:49:47;2.10;69.70
42841;DHT22;28491;46.898;7.660;2023-02-03T04:52:13;2.20;69.10
42841;DHT22;28491;46.898;7.660;2023-02-03T04:54:38;2.10;68.30
42841;DHT22;28491;46.898;7.660;2023-02-03T04:57:04;2.10;68.20
42841;DHT22;28491;46.898;7.660;2023-02-03T04:59:30;2.20;68.30
42841;DHT22;28491;46.898;7.660;2023-02-03T05:01:56;2.20;67.90
42841;DHT22;28491;46.898;7.660;2023-02-03T05:04:21;2.20;68.10
42841;DHT22;28491;46.898;7.660;2023-02-03T05:06:47;2.20;68.70
42841;DHT22;28491;46.898;7.660;2023-02-03T05:09:12;2.10;68.50
42841;DHT22;28491;46.898;7.660;2023-02-03T05:11:38;2.00;68.80
42841;DHT22;28491;46.898;7.660;2023-02-03T05:14:04;2.00;70.00
42841;DHT22;28491;46.898;7.660;2023-02-03T05:16:29;1.90;71.50
42841;DHT22;28491;46.898;7.660;2023-02-03T05:18:55;1.80;73.90
42841;DHT22;28491;46.898;7.660;2023-02-03T05:21:20;1.80;74.00
42841;DHT22;28491;46.898;7.660;2023-02-03T05:23:46;1.80;75.70
42841;DHT22;28491;46.898;7.660;2023-02-03T05:26:12;1.80;75.50
42841;DHT22;28491;46.898;7.660;2023-02-03T05:28:37;1.80;75.20
42841;DHT22;28491;46.898;7.660;2023-02-03T05:31:03;1.90;74.00
42841;DHT22;28491;46.898;7.660;2023-02-03T05:33:28;2.10;72.70
42841;DHT22;28491;46.898;7.660;2023-02-03T05:35:54;2.10;69.70
42841;DHT22;28491;46.898;7.660;2023-02-03T05:38:20;2.10;68.00
42841;DHT22;28491;46.898;7.660;2023-02-03T05:40:49;2.10;67.10
42841;DHT22;28491;46.898;7.660;2023-02-03T05:43:34;2.00;67.20
42841;DHT22;28491;46.898;7.660;2023-02-03T05:46:05;1.90;67.80
42841;DHT22;28491;46.898;7.660;2023-02-03T05:48:31;1.80;68.20
42841;DHT22;28491;46.898;7.660;2023-02-03T05:50:57;1.60;70.40
42841;DHT22;28491;46.898;7.660;2023-02-03T05:53:22;1.50;72.50
42841;DHT22;28491;46.898;7.660;2023-02-03T05:55:48;1.50;74.10
42841;DHT22;28491;46.898;7.660;2023-02-03T05:58:14;1.50;74.60
42841;DHT22;28491;46.898;7.660;2023-02-03T06:00:39;1.50;74.50
42841;DHT22;28491;46.898;7.660;2023-02-03T06:03:05;1.60;73.60
42841;DHT22;28491;46.898;7.660;2023-02-03T06:05:32;1.70;71.10
42841;DHT22;28491;46.898;7.660;2023-02-03T06:07:59;1.70;69.00
42841;DHT22;28491;46.898;7.660;2023-02-03T06:10:25;1.70;66.70
42841;DHT22;28491;46.898;7.660;2023-02-03T06:12:51;1.80;65.90
42841;DHT22;28491;46.898;7.660;2023-02-03T06:15:16;1.80;65.20
42841;DHT22;28491;46.898;7.660;2023-02-03T06:17:47;1.70;64.20
42841;DHT22;28491;46.898;7.660;2023-02-03T06:20:15;1.70;63.80
42841;DHT22;28491;46.898;7.660;2023-02-03T06:22:41;1.60;66.30
42841;DHT22;28491;46.898;7.660;2023-02-03T06:25:07;1.60;68.10
42841;DHT22;28491;46.898;7.660;2023-02-03T06:27:33;1.60;68.10
42841;DHT22;28491;46.898;7.660;2023-02-03T06:29:58;1.30;67.90
42841;DHT22;28491;46.898;7.660;2023-02-03T06:32:24;1.30;69.40
42841;DHT22;28491;46.898;7.660;2023-02-03T06:34:49;1.20;70.30
42841;DHT22;28491;46.898;7.660;2023-02-03T06:37:15;1.20;70.50
42841;DHT22;28491;46.898;7.660;2023-02-03T06:39:40;1.20;71.40
42841;DHT22;28491;46.898;7.660;2023-02-03T06:42:06;1.30;71.10
42841;DHT22;28491;46.898;7.660;2023-02-03T06:44:32;1.30;68.90
42841;DHT22;28491;46.898;7.660;2023-02-03T06:46:57;1.20;67.20
42841;DHT22;28491;46.898;7.660;2023-02-03T06:49:23;1.10;66.90
42841;DHT22;28491;46.898;7.660;2023-02-03T06:51:49;1.00;67.90
42841;DHT22;28491;46.898;7.660;2023-02-03T06:54:15;0.70;66.80
42841;DHT22;28491;46.898;7.660;2023-02-03T06:56:40;0.70;69.70
42841;DHT22;28491;46.898;7.660;2023-02-03T06:59:06;0.60;69.30
42841;DHT22;28491;46.898;7.660;2023-02-03T07:01:33;0.40;68.60
42841;DHT22;28491;46.898;7.660;2023-02-03T07:03:58;0.40;69.10
42841;DHT22;28491;46.898;7.660;2023-02-03T07:06:24;0.60;71.10
42841;DHT22;28491;46.898;7.660;2023-02-03T07:08:55;0.60;70.00
42841;DHT22;28491;46.898;7.660;2023-02-03T07:11:21;0.60;68.20
42841;DHT22;28491;46.898;7.660;2023-02-03T07:13:47;0.70;67.80
42841;DHT22;28491;46.898;7.660;2023-02-03T07:16:13;0.70;66.90
42841;DHT22;28491;46.898;7.660;2023-02-03T07:18:39;0.70;66.60
42841;DHT22;28491;46.898;7.660;2023-02-03T07:21:05;0.60;65.80
42841;DHT22;28491;46.898;7.660;2023-02-03T07:23:31;0.40;64.60
42841;DHT22;28491;46.898;7.660;2023-02-03T07:26:01;0.30;65.50
42841;DHT22;28491;46.898;7.660;2023-02-03T07:28:27;0.50;65.80
42841;DHT22;28491;46.898;7.660;2023-02-03T07:30:52;0.70;65.70
42841;DHT22;28491;46.898;7.660;2023-02-03T07:33:18;0.70;64.50
42841;DHT22;28491;46.898;7.660;2023-02-03T07:35:53;0.80;64.30
42841;DHT22;28491;46.898;7.660;2023-02-03T07:38:19;0.80;62.30
42841;DHT22;28491;46.898;7.660;2023-02-03T07:40:45;0.80;61.80
42841;DHT22;28491;46.898;7.660;2023-02-03T07:43:10;0.80;61.90
42841;DHT22;28491;46.898;7.660;2023-02-03T07:45:36;0.90;61.30
42841;DHT22;28491;46.898;7.660;2023-02-03T07:48:01;0.80;61.90
42841;DHT22;28491;46.898;7.660;2023-02-03T07:50:27;0.90;61.80
42841;DHT22;28491;46.898;7.660;2023-02-03T07:52:52;1.00;61.10
42841;DHT22;28491;46.898;7.660;2023-02-03T07:55:20;2.70;44.20
42841;DHT22;28491;46.898;7.660;2023-02-03T07:57:45;4.90;1.00
42841;DHT22;28491;46.898;7.660;2023-02-03T08:00:12;7.00;1.00
42841;DHT22;28491;46.898;7.660;2023-02-03T08:02:42;8.20;1.00
42841;DHT22;28491;46.898;7.660;2023-02-03T08:05:09;8.80;1.00
42841;DHT22;28491;46.898;7.660;2023-02-03T08:07:34;9.10;1.00
42841;DHT22;28491;46.898;7.660;2023-02-03T08:10:00;10.20;1.00
42841;DHT22;28491;46.898;7.660;2023-02-03T08:12:26;10.20;1.00
42841;DHT22;28491;46.898;7.660;2023-02-03T08:14:51;9.90;1.00
42841;DHT22;28491;46.898;7.660;2023-02-03T08:17:17;10.50;1.00
42841;DHT22;28491;46.898;7.660;2023-02-03T08:19:42;10.40;1.00
42841;DHT22;28491;46.898;7.660;2023-02-03T08:22:08;10.60;1.00
42841;DHT22;28491;46.898;7.660;2023-02-03T08:24:33;11.00;1.00
42841;DHT22;28491;46.898;7.660;2023-02-03T08:26:59;11.50;1.00
42841;DHT22;28491;46.898;7.660;2023-02-03T08:29:25;11.30;1.00
42841;DHT22;28491;46.898;7.660;2023-02-03T08:31:50;11.70;1.00
42841;DHT22;28491;46.898;7.660;2023-02-03T08:34:16;12.60;1.00
42841;DHT22;28491;46.898;7.660;2023-02-03T08:36:42;12.20;1.00
42841;DHT22;28491;46.898;7.660;2023-02-03T08:39:08;12.30;1.00
42841;DHT22;28491;46.898;7.660;2023-02-03T08:41:34;11.70;1.00
42841;DHT22;28491;46.898;7.660;2023-02-03T08:43:59;12.40;1.00
42841;DHT22;28491;46.898;7.660;2023-02-03T08:46:26;13.30;1.00
42841;DHT22;28491;46.898;7.660;2023-02-03T08:48:53;12.80;1.00
42841;DHT22;28491;46.898;7.660;2023-02-03T08:51:21;12.60;1.00
42841;DHT22;28491;46.898;7.660;2023-02-03T08:53:46;12.70;1.00
42841;DHT22;28491;46.898;7.660;2023-02-03T08:56:12;12.10;1.00
42841;DHT22;28491;46.898;7.660;2023-02-03T08:58:38;12.40;1.00
42841;DHT22;28491;46.898;7.660;2023-02-03T09:01:09;12.90;1.00
42841;DHT22;28491;46.898;7.660;2023-02-03T09:03:35;13.00;1.00
42841;DHT22;28491;46.898;7.660;2023-02-03T09:06:01;12.80;1.00
42841;DHT22;28491;46.898;7.660;2023-02-03T09:08:27;13.70;1.00
42841;DHT22;28491;46.898;7.660;2023-02-03T09:10:53;14.70;1.00
42841;DHT22;28491;46.898;7.660;2023-02-03T09:13:18;15.10;1.00
42841;DHT22;28491;46.898;7.660;2023-02-03T09:15:44;15.10;1.00
42841;DHT22;28491;46.898;7.660;2023-02-03T09:18:09;15.40;1.00
42841;DHT22;28491;46.898;7.660;2023-02-03T09:20:35;15.30;1.00
42841;DHT22;28491;46.898;7.660;2023-02-03T09:23:00;15.40;1.00
42841;DHT22;28491;46.898;7.660;2023-02-03T09:25:26;15.70;1.00
42841;DHT22;28491;46.898;7.660;2023-02-03T09:27:51;15.80;1.00
42841;DHT22;28491;46.898;7.660;2023-02-03T09:30:17;15.80;1.00
42841;DHT22;28491;46.898;7.660;2023-02-03T09:32:42;15.70;1.00
42841;DHT22;28491;46.898;7.660;2023-02-03T09:35:09;15.50;1.00
42841;DHT22;28491;46.898;7.660;2023-02-03T09:37:34;15.10;1.00
42841;DHT22;28491;46.898;7.660;2023-02-03T09:40:00;15.20;1.00
42841;DHT22;28491;46.898;7.660;2023-02-03T09:45:27;14.30;1.00
42841;DHT22;28491;46.898;7.660;2023-02-03T09:47:58;13.20;1.00
42841;DHT22;28491;46.898;7.660;2023-02-03T09:50:27;12.50;1.00
42841;DHT22;28491;46.898;7.660;2023-02-03T09:52:54;12.20;1.00
42841;DHT22;28491;46.898;7.660;2023-02-03T09:55:32;12.30;1.00
42841;DHT22;28491;46.898;7.660;2023-02-03T10:00:41;12.20;1.00
42841;DHT22;28491;46.898;7.660;2023-02-03T10:03:25;11.70;1.00
42841;DHT22;28491;46.898;7.660;2023-02-03T10:11:54;12.20;1.00
42841;DHT22;28491;46.898;7.660;2023-02-03T10:14:34;12.20;1.00
42841;DHT22;28491;46.898;7.660;2023-02-03T10:17:13;12.00;1.00
42841;DHT22;28491;46.898;7.660;2023-02-03T10:22:19;11.80;1.00
42841;DHT22;28491;46.898;7.660;2023-02-03T10:27:36;10.60;1.00
42841;DHT22;28491;46.898;7.660;2023-02-03T10:32:28;10.40;1.00
42841;DHT22;28491;46.898;7.660;2023-02-03T10:34:55;10.60;1.00
42841;DHT22;28491;46.898;7.660;2023-02-03T10:37:48;11.00;1.00
42841;DHT22;28491;46.898;7.660;2023-02-03T10:40:15;11.20;1.00
42841;DHT22;28491;46.898;7.660;2023-02-03T10:42:46;11.10;1.00
42841;DHT22;28491;46.898;7.660;2023-02-03T10:45:35;11.00;1.00
42841;DHT22;28491;46.898;7.660;2023-02-03T10:48:01;11.10;1.00
42841;DHT22;28491;46.898;7.660;2023-02-03T10:50:28;11.20;1.00
42841;DHT22;28491;46.898;7.660;2023-02-03T10:53:30;11.10;1.00
42841;DHT22;28491;46.898;7.660;2023-02-03T10:56:13;11.00;1.00
42841;DHT22;28491;46.898;7.660;2023-02-03T10:58:47;10.90;1.00
42841;DHT22;28491;46.898;7.660;2023-02-03T11:01:15;10.90;1.00
42841;DHT22;28491;46.898;7.660;2023-02-03T11:03:44;11.00;1.00
42841;DHT22;28491;46.898;7.660;2023-02-03T11:06:17;10.90;1.00
42841;DHT22;28491;46.898;7.660;2023-02-03T11:08:45;11.00;1.00
42841;DHT22;28491;46.898;7.660;2023-02-03T11:16:18;10.90;1.00
42841;DHT22;28491;46.898;7.660;2023-02-03T11:21:23;11.30;1.00
42841;DHT22;28491;46.898;7.660;2023-02-03T11:26:29;11.20;1.00
42841;DHT22;28491;46.898;7.660;2023-02-03T11:28:58;11.20;1.00
42841;DHT22;28491;46.898;7.660;2023-02-03T11:31:27;11.20;1.00
42841;DHT22;28491;46.898;7.660;2023-02-03T11:33:55;11.10;1.00
42841;DHT22;28491;46.898;7.660;2023-02-03T11:36:21;11.20;1.00
42841;DHT22;28491;46.898;7.660;2023-02-03T11:38:49;11.40;1.00
42841;DHT22;28491;46.898;7.660;2023-02-03T11:41:18;11.30;1.00
42841;DHT22;28491;46.898;7.660;2023-02-03T11:43:45;11.30;1.00
42841;DHT22;28491;46.898;7.660;2023-02-03T11:46:10;11.00;1.00
42841;DHT22;28491;46.898;7.660;2023-02-03T11:48:52;11.10;1.00
42841;DHT22;28491;46.898;7.660;2023-02-03T11:51:39;11.20;1.00
42841;DHT22;28491;46.898;7.660;2023-02-03T11:57:19;10.90;1.00
42841;DHT22;28491;46.898;7.660;2023-02-03T12:05:58;11.10;1.00
42841;DHT22;28491;46.898;7.660;2023-02-03T12:09:45;11.10;1.00
42841;DHT22;28491;46.898;7.660;2023-02-03T12:15:02;10.60;1.00
42841;DHT22;28491;46.898;7.660;2023-02-03T12:17:39;10.60;1.00
42841;DHT22;28491;46.898;7.660;2023-02-03T12:20:30;10.50;1.00
42841;DHT22;28491;46.898;7.660;2023-02-03T12:23:10;10.70;1.00
42841;DHT22;28491;46.898;7.660;2023-02-03T12:25:47;10.90;1.00
42841;DHT22;28491;46.898;7.660;2023-02-03T12:28:35;11.00;1.00
42841;DHT22;28491;46.898;7.660;2023-02-03T12:31:08;11.00;1.00
42841;DHT22;28491;46.898;7.660;2023-02-03T12:33:42;10.90;1.00
42841;DHT22;28491;46.898;7.660;2023-02-03T12:36:29;10.90;1.00
42841;DHT22;28491;46.898;7.660;2023-02-03T12:39:05;10.70;1.00
42841;DHT22;28491;46.898;7.660;2023-02-03T12:41:39;10.60;1.00
42841;DHT22;28491;46.898;7.660;2023-02-03T12:44:18;10.70;1.00
42841;DHT22;28491;46.898;7.660;2023-02-03T12:46:51;10.30;1.00
42841;DHT22;28491;46.898;7.660;2023-02-03T12:49:26;10.10;1.00
42841;DHT22;28491;46.898;7.660;2023-02-03T12:51:59;10.40;1.00
42841;DHT22;28491;46.898;7.660;2023-02-03T12:54:41;10.60;1.00
42841;DHT22;28491;46.898;7.660;2023-02-03T12:57:17;10.40;1.00
42841;DHT22;28491;46.898;7.660;2023-02-03T12:59:55;10.10;1.00
42841;DHT22;28491;46.898;7.660;2023-02-03T13:02:26;10.20;1.00
42841;DHT22;28491;46.898;7.660;2023-02-03T13:04:58;10.00;1.00
42841;DHT22;28491;46.898;7.660;2023-02-03T13:07:39;9.40;1.00
42841;DHT22;28491;46.898;7.660;2023-02-03T13:10:37;9.50;1.00
42841;DHT22;28491;46.898;7.660;2023-02-03T13:13:04;10.30;1.00
42841;DHT22;28491;46.898;7.660;2023-02-03T13:15:37;10.70;1.00
42841;DHT22;28491;46.898;7.660;2023-02-03T13:20:44;11.10;1.00
42841;DHT22;28491;46.898;7.660;2023-02-03T13:23:12;11.10;1.00
42841;DHT22;28491;46.898;7.660;2023-02-03T13:26:05;11.30;1.00
42841;DHT22;28491;46.898;7.660;2023-02-03T13:35:22;11.10;1.00
42841;DHT22;28491;46.898;7.660;2023-02-03T13:38:09;10.80;1.00
42841;DHT22;28491;46.898;7.660;2023-02-03T13:40:54;10.50;1.00
42841;DHT22;28491;46.898;7.660;2023-02-03T13:43:31;10.50;1.00
42841;DHT22;28491;46.898;7.660;2023-02-03T13:45:58;10.50;1.00
42841;DHT22;28491;46.898;7.660;2023-02-03T13:48:27;10.60;1.00
42841;DHT22;28491;46.898;7.660;2023-02-03T13:51:07;10.70;1.00
42841;DHT22;28491;46.898;7.660;2023-02-03T13:53:39;10.80;1.00
42841;DHT22;28491;46.898;7.660;2023-02-03T13:56:07;10.90;1.00
42841;DHT22;28491;46.898;7.660;2023-02-03T13:58:36;10.90;1.00
42841;DHT22;28491;46.898;7.660;2023-02-03T14:01:33;10.90;1.00
42841;DHT22;28491;46.898;7.660;2023-02-03T14:04:00;10.80;1.00
42841;DHT22;28491;46.898;7.660;2023-02-03T14:20:01;9.80;1.00
42841;DHT22;28491;46.898;7.660;2023-02-03T14:22:28;9.80;1.00
42841;DHT22;28491;46.898;7.660;2023-02-03T14:24:55;9.70;1.00
42841;DHT22;28491;46.898;7.660;2023-02-03T14:27:24;9.70;1.00
42841;DHT22;28491;46.898;7.660;2023-02-03T14:30:24;9.60;1.00
42841;DHT22;28491;46.898;7.660;2023-02-03T14:32:54;9.50;1.00
42841;DHT22;28491;46.898;7.660;2023-02-03T14:35:22;9.30;1.00
42841;DHT22;28491;46.898;7.660;2023-02-03T14:37:56;9.20;1.00
42841;DHT22;28491;46.898;7.660;2023-02-03T14:54:02;8.70;1.00
42841;DHT22;28491;46.898;7.660;2023-02-03T14:56:59;8.60;1.00
42841;DHT22;28491;46.898;7.660;2023-02-03T14:59:58;8.50;1.00
42841;DHT22;28491;46.898;7.660;2023-02-03T15:02:27;8.50;1.00
42841;DHT22;28491;46.898;7.660;2023-02-03T15:07:42;8.40;1.00
42841;DHT22;28491;46.898;7.660;2023-02-03T15:10:16;8.30;1.00
42841;DHT22;28491;46.898;7.660;2023-02-03T15:12:51;8.30;1.00
42841;DHT22;28491;46.898;7.660;2023-02-03T15:15:28;8.20;1.00
42841;DHT22;28491;46.898;7.660;2023-02-03T15:18:11;8.10;1.00
42841;DHT22;28491;46.898;7.660;2023-02-03T15:20:46;8.10;1.00
42841;DHT22;28491;46.898;7.660;2023-02-03T15:23:22;7.90;1.00
42841;DHT22;28491;46.898;7.660;2023-02-03T15:26:08;7.90;1.00
42841;DHT22;28491;46.898;7.660;2023-02-03T15:28:34;7.80;1.00
42841;DHT22;28491;46.898;7.660;2023-02-03T15:31:15;7.80;1.00
42841;DHT22;28491;46.898;7.660;2023-02-03T15:33:43;7.70;1.00
42841;DHT22;28491;46.898;7.660;2023-02-03T15:36:16;7.60;1.00
42841;DHT22;28491;46.898;7.660;2023-02-03T15:38:49;7.60;1.00
42841;DHT22;28491;46.898;7.660;2023-02-03T15:41:24;7.60;1.00
42841;DHT22;28491;46.898;7.660;2023-02-03T15:43:56;7.50;1.00
42841;DHT22;28491;46.898;7.660;2023-02-03T15:46:31;7.40;1.00
42841;DHT22;28491;46.898;7.660;2023-02-03T15:49:19;7.30;1.00
42841;DHT22;28491;46.898;7.660;2023-02-03T15:51:48;7.30;1.00
42841;DHT22;28491;46.898;7.660;2023-02-03T15:54:22;7.20;1.00
42841;DHT22;28491;46.898;7.660;2023-02-03T15:57:03;7.10;1.00
42841;DHT22;28491;46.898;7.660;2023-02-03T15:59:38;6.90;1.00
42841;DHT22;28491;46.898;7.660;2023-02-03T16:02:16;6.90;1.00
42841;DHT22;28491;46.898;7.660;2023-02-03T16:04:47;6.80;1.00
42841;DHT22;28491;46.898;7.660;2023-02-03T16:07:18;6.60;1.00
42841;DHT22;28491;46.898;7.660;2023-02-03T16:09:45;6.60;1.00
42841;DHT22;28491;46.898;7.660;2023-02-03T16:12:28;6.50;1.00
42841;DHT22;28491;46.898;7.660;2023-02-03T16:14:56;6.30;1.00
42841;DHT22;28491;46.898;7.660;2023-02-03T16:22:39;5.90;1.00
42841;DHT22;28491;46.898;7.660;2023-02-03T16:25:23;5.80;1.00
42841;DHT22;28491;46.898;7.660;2023-02-03T16:28:00;5.80;1.00
42841;DHT22;28491;46.898;7.660;2023-02-03T16:31:02;5.60;1.00
42841;DHT22;28491;46.898;7.660;2023-02-03T16:33:48;5.60;1.00
42841;DHT22;28491;46.898;7.660;2023-02-03T16:36:38;5.50;1.00
42841;DHT22;28491;46.898;7.660;2023-02-03T16:39:24;5.50;1.00
42841;DHT22;28491;46.898;7.660;2023-02-03T16:42:14;5.30;1.00
42841;DHT22;28491;46.898;7.660;2023-02-03T16:44:58;5.30;1.00
42841;DHT22;28491;46.898;7.660;2023-02-03T16:47:43;5.30;1.00
42841;DHT22;28491;46.898;7.660;2023-02-03T16:50:28;5.50;1.00
42841;DHT22;28491;46.898;7.660;2023-02-03T16:53:27;5.40;1.00
42841;DHT22;28491;46.898;7.660;2023-02-03T16:55:55;5.30;1.00
42841;DHT22;28491;46.898;7.660;2023-02-03T16:58:21;5.30;1.00
42841;DHT22;28491;46.898;7.660;2023-02-03T17:00:48;5.30;1.00
42841;DHT22;28491;46.898;7.660;2023-02-03T17:03:20;5.20;1.00
42841;DHT22;28491;46.898;7.660;2023-02-03T17:05:46;5.10;1.00
42841;DHT22;28491;46.898;7.660;2023-02-03T17:08:13;5.20;1.00
42841;DHT22;28491;46.898;7.660;2023-02-03T17:10:41;5.10;1.00
42841;DHT22;28491;46.898;7.660;2023-02-03T17:13:07;5.00;1.00
42841;DHT22;28491;46.898;7.660;2023-02-03T17:15:41;4.80;1.00
42841;DHT22;28491;46.898;7.660;2023-02-03T17:18:08;4.80;1.00
42841;DHT22;28491;46.898;7.660;2023-02-03T17:20:34;4.60;1.00
42841;DHT22;28491;46.898;7.660;2023-02-03T17:23:00;4.50;1.00
42841;DHT22;28491;46.898;7.660;2023-02-03T17:25:26;4.40;1.00
42841;DHT22;28491;46.898;7.660;2023-02-03T17:27:51;4.40;1.20
42841;DHT22;28491;46.898;7.660;2023-02-03T17:30:17;4.50;1.00
42841;DHT22;28491;46.898;7.660;2023-02-03T17:32:42;4.50;1.00
42841;DHT22;28491;46.898;7.660;2023-02-03T17:35:08;4.60;1.00
42841;DHT22;28491;46.898;7.660;2023-02-03T17:37:34;4.50;1.00
42841;DHT22;28491;46.898;7.660;2023-02-03T17:39:59;4.50;1.00
42841;DHT22;28491;46.898;7.660;2023-02-03T17:42:25;4.40;1.00
42841;DHT22;28491;46.898;7.660;2023-02-03T17:44:51;4.40;1.00
42841;DHT22;28491;46.898;7.660;2023-02-03T17:47:16;4.30;1.00
42841;DHT22;28491;46.898;7.660;2023-02-03T17:49:42;4.20;1.00
42841;DHT22;28491;46.898;7.660;2023-02-03T17:52:09;4.10;1.00